Time;durP1;ratioP1;P1;durP2;ratioP2;P2;SDS_P1;SDS_P2;PMS_P1;PMS_P2;Temp;Humidity;BMP_temperature;BMP_pressure;BME280_temperature;BME280_humidity;BME280_pressure;Samples;Min_cycle;Max_cycle;Signal;HPM_P1;HPM_P2
2024/01/12 00:01:47;;;;;;;39.55;21.88;;;;;;;-0.57;100.00;102791.47;4997463;28;20083;-62
2024/01/12 00:04:13;;;;;;;43.50;21.25;;;;;;;-0.53;100.00;102798.50;4993547;28;20165;-62
2024/01/12 00:06:38;;;;;;;38.30;20.90;;;;;;;-0.52;100.00;102791.00;4991840;28;20695;-62
2024/01/12 00:09:04;;;;;;;47.80;21.92;;;;;;;-0.56;100.00;102795.75;4987636;28;20053;-62
2024/01/12 00:11:29;;;;;;;45.10;22.90;;;;;;;-0.55;100.00;102788.25;4995897;28;20041;-62
2024/01/12 00:13:55;;;;;;;42.63;21.50;;;;;;;-0.53;100.00;102785.81;4993969;28;20044;-62
2024/01/12 00:16:20;;;;;;;39.75;21.58;;;;;;;-0.54;100.00;102786.63;4989803;28;20045;-62
2024/01/12 00:18:46;;;;;;;40.10;21.33;;;;;;;-0.53;100.00;102780.75;4995326;28;20520;-62
2024/01/12 00:21:11;;;;;;;39.95;21.90;;;;;;;-0.50;100.00;102786.03;4994812;28;20053;-63
2024/01/12 00:23:36;;;;;;;42.10;21.85;;;;;;;-0.50;100.00;102781.84;4994331;28;20076;-62
2024/01/12 00:26:02;;;;;;;43.08;22.63;;;;;;;-0.48;100.00;102771.75;4995065;28;20062;-70
2024/01/12 00:28:28;;;;;;;41.45;22.55;;;;;;;-0.49;100.00;102768.38;4993350;28;20065;-70
2024/01/12 00:30:54;;;;;;;40.17;20.98;;;;;;;-0.47;100.00;102766.81;4997490;28;20492;-70
2024/01/12 00:33:20;;;;;;;38.08;20.27;;;;;;;-0.45;100.00;102775.41;4993791;28;20168;-71
2024/01/12 00:35:45;;;;;;;43.92;22.13;;;;;;;-0.46;100.00;102773.66;4995675;28;20812;-71
2024/01/12 00:38:11;;;;;;;47.42;22.40;;;;;;;-0.43;100.00;102772.97;4992824;28;20038;-70
2024/01/12 00:40:36;;;;;;;41.97;21.23;;;;;;;-0.43;100.00;102773.88;4994391;28;20081;-66
2024/01/12 00:43:02;;;;;;;43.10;22.65;;;;;;;-0.41;100.00;102768.88;4989019;28;20041;-62
2024/01/12 00:45:27;;;;;;;46.97;21.40;;;;;;;-0.39;100.00;102770.72;4993253;28;20916;-62
2024/01/12 00:47:52;;;;;;;46.30;23.08;;;;;;;-0.34;100.00;102776.13;4993719;28;20058;-62
2024/01/12 00:50:19;;;;;;;52.00;25.52;;;;;;;-0.29;100.00;102778.97;4995845;28;20045;-62
2024/01/12 00:52:44;;;;;;;43.60;22.80;;;;;;;-0.28;100.00;102781.63;4995692;28;20042;-62
2024/01/12 00:55:11;;;;;;;43.42;22.67;;;;;;;-0.27;100.00;102783.38;4991400;28;20049;-62
2024/01/12 00:57:36;;;;;;;46.22;25.38;;;;;;;-0.27;100.00;102782.53;4995704;28;20054;-71
2024/01/12 01:00:04;;;;;;;49.00;24.60;;;;;;;-0.26;100.00;102787.69;4994387;28;20968;-70
2024/01/12 01:02:30;;;;;;;47.33;23.05;;;;;;;-0.25;100.00;102788.56;4992869;28;20038;-67
2024/01/12 01:04:55;;;;;;;50.53;24.70;;;;;;;-0.24;100.00;102793.75;4996506;28;20028;-66
2024/01/12 01:07:21;;;;;;;47.00;23.55;;;;;;;-0.22;100.00;102792.22;4992553;28;20038;-66
2024/01/12 01:09:46;;;;;;;49.10;23.80;;;;;;;-0.23;100.00;102787.91;4996380;28;20728;-67
2024/01/12 01:12:11;;;;;;;44.25;23.77;;;;;;;-0.21;100.00;102790.53;4994412;28;20152;-67
2024/01/12 01:14:37;;;;;;;45.85;23.90;;;;;;;-0.21;100.00;102777.81;4998354;28;20034;-66
2024/01/12 01:17:03;;;;;;;44.58;23.52;;;;;;;-0.21;100.00;102775.28;4994914;28;20042;-71
2024/01/12 01:19:28;;;;;;;48.72;23.73;;;;;;;-0.21;100.00;102778.69;4998479;28;20042;-71
2024/01/12 01:21:53;;;;;;;49.40;23.88;;;;;;;-0.19;100.00;102772.09;4994812;28;20065;-71
2024/01/12 01:24:19;;;;;;;48.67;26.70;;;;;;;-0.20;100.00;102772.84;4988217;28;20070;-62
2024/01/12 01:26:44;;;;;;;45.00;24.00;;;;;;;-0.19;100.00;102772.09;4992583;28;20026;-62
2024/01/12 01:29:10;;;;;;;47.50;23.58;;;;;;;-0.18;100.00;102778.91;4992405;28;20029;-61
2024/01/12 01:31:35;;;;;;;45.60;25.30;;;;;;;-0.18;100.00;102780.56;4987359;28;20074;-66
2024/01/12 01:34:01;;;;;;;44.05;24.15;;;;;;;-0.18;100.00;102778.91;4993207;28;20672;-64
2024/01/12 01:36:26;;;;;;;56.45;25.15;;;;;;;-0.16;100.00;102779.91;4992235;28;20040;-65
2024/01/12 01:38:52;;;;;;;49.90;25.00;;;;;;;-0.14;100.00;102788.50;4994851;28;20038;-66
2024/01/12 01:41:17;;;;;;;44.05;22.85;;;;;;;-0.14;100.00;102788.50;4992836;28;20718;-67
2024/01/12 01:43:42;;;;;;;45.22;24.25;;;;;;;-0.14;100.00;102790.16;4993794;28;20045;-67
2024/01/12 01:46:08;;;;;;;48.88;24.98;;;;;;;-0.13;100.00;102797.91;4996999;28;20052;-67
2024/01/12 01:48:34;;;;;;;52.42;25.60;;;;;;;-0.14;100.00;102801.22;4998628;28;20139;-65
2024/01/12 01:51:00;;;;;;;46.90;25.35;;;;;;;-0.12;100.00;102803.84;4997225;28;20129;-66
2024/01/12 01:53:25;;;;;;;47.33;23.45;;;;;;;-0.11;100.00;102795.47;4993819;28;20029;-65
2024/01/12 01:55:51;;;;;;;44.10;23.85;;;;;;;-0.11;100.00;102796.34;4994986;28;20511;-67
2024/01/12 01:58:17;;;;;;;56.58;25.27;;;;;;;-0.12;100.00;102794.56;4995873;28;20060;-67
2024/01/12 02:00:43;;;;;;;46.40;25.23;;;;;;;-0.13;100.00;102797.91;4994813;28;20029;-66
2024/01/12 02:03:09;;;;;;;48.22;25.08;;;;;;;-0.11;100.00;102795.47;4993872;28;20049;-66
2024/01/12 02:05:35;;;;;;;45.05;24.23;;;;;;;-0.11;100.00;102792.91;4996997;28;20033;-66
2024/01/12 02:08:01;;;;;;;51.70;25.90;;;;;;;-0.11;100.00;102795.47;4997531;28;20113;-65
2024/01/12 02:10:27;;;;;;;47.03;25.38;;;;;;;-0.11;100.00;102798.88;4993484;28;20038;-65
2024/01/12 02:12:53;;;;;;;46.75;25.35;;;;;;;-0.10;100.00;102800.66;4987825;28;20481;-66
2024/01/12 02:15:19;;;;;;;48.90;26.00;;;;;;;-0.09;100.00;102802.41;4994975;28;20088;-66
2024/01/12 02:17:44;;;;;;;47.78;25.65;;;;;;;-0.11;100.00;102793.78;5009877;23;20080;-63
2024/01/12 02:20:10;;;;;;;50.40;26.40;;;;;;;-0.11;100.00;102793.78;5010548;28;20038;-63
2024/01/12 02:22:36;;;;;;;59.22;26.15;;;;;;;-0.09;100.00;102797.31;4997899;28;20061;-64
2024/01/12 02:25:02;;;;;;;55.72;27.08;;;;;;;-0.10;100.00;102793.03;4989713;28;20044;-64
2024/01/12 02:27:28;;;;;;;50.78;26.75;;;;;;;-0.08;100.00;102788.03;4989329;28;20040;-64
2024/01/12 02:29:54;;;;;;;53.08;27.67;;;;;;;-0.09;100.00;102786.25;4988505;28;20571;-64
2024/01/12 02:32:20;;;;;;;56.15;26.92;;;;;;;-0.10;100.00;102787.06;4988342;28;20076;-64
2024/01/12 02:34:45;;;;;;;50.08;27.15;;;;;;;-0.08;100.00;102788.03;4988986;28;20058;-64
2024/01/12 02:37:11;;;;;;;54.22;28.40;;;;;;;-0.10;100.00;102780.31;4988429;28;20476;-64
2024/01/12 02:39:36;;;;;;;56.05;28.52;;;;;;;-0.09;100.00;102774.44;4988228;28;20101;-64
2024/01/12 02:42:02;;;;;;;51.60;27.33;;;;;;;-0.09;100.00;102776.97;4989981;28;20385;-64
2024/01/12 02:44:27;;;;;;;54.42;27.25;;;;;;;-0.08;100.00;102775.31;4986478;28;20045;-63
2024/01/12 02:46:53;;;;;;;49.80;26.60;;;;;;;-0.06;100.00;102771.22;4989277;28;20034;-64
2024/01/12 02:49:18;;;;;;;51.92;25.83;;;;;;;-0.06;100.00;102771.22;4988427;28;20057;-64
2024/01/12 02:51:44;;;;;;;46.35;25.67;;;;;;;-0.06;100.00;102759.38;4982043;28;20042;-64
2024/01/12 02:54:10;;;;;;;52.13;27.33;;;;;;;-0.06;100.00;102764.47;4982537;28;20052;-63
2024/01/12 02:56:35;;;;;;;48.67;27.63;;;;;;;-0.04;100.00;102769.69;4987386;28;20034;-63
2024/01/12 02:59:01;;;;;;;54.20;26.80;;;;;;;-0.05;100.00;102768.78;4983743;28;20030;-64
2024/01/12 03:01:27;;;;;;;52.35;27.05;;;;;;;-0.04;100.00;102777.31;4987997;28;20031;-63
2024/01/12 03:03:53;;;;;;;51.20;27.85;;;;;;;-0.04;100.00;102762.94;4984895;28;20640;-63
2024/01/12 03:06:19;;;;;;;50.42;26.63;;;;;;;-0.03;100.00;102758.72;4987692;28;20039;-63
2024/01/12 03:08:44;;;;;;;55.58;27.98;;;;;;;-0.02;100.00;102753.75;4987145;28;20617;-64
2024/01/12 03:11:11;;;;;;;54.45;27.02;;;;;;;-0.01;100.00;102752.97;4993056;28;20030;-64
2024/01/12 03:13:36;;;;;;;50.13;26.70;;;;;;;-0.00;100.00;102748.75;4989385;28;20038;-63
2024/01/12 03:16:03;;;;;;;50.53;26.20;;;;;;;0.01;100.00;102750.50;4985113;28;20105;-63
2024/01/12 03:18:30;;;;;;;58.63;28.92;;;;;;;0.00;100.00;102747.09;4985227;28;20146;-64
2024/01/12 03:20:57;;;;;;;49.42;26.48;;;;;;;-0.00;100.00;102748.75;4985172;28;20031;-64
2024/01/12 03:23:22;;;;;;;55.20;28.58;;;;;;;0.01;100.00;102753.94;4986966;28;20088;-64
2024/01/12 03:25:48;;;;;;;58.03;28.52;;;;;;;0.01;100.00;102743.78;4986053;28;20644;-63
2024/01/12 03:28:13;;;;;;;54.13;27.88;;;;;;;-0.01;100.00;102740.25;4987519;28;20372;-63
2024/01/12 03:30:39;;;;;;;54.95;27.98;;;;;;;0.01;100.00;102737.81;4991343;28;20050;-64
2024/01/12 03:33:06;;;;;;;62.05;29.58;;;;;;;-0.00;100.00;102733.50;4988071;28;20065;-64
2024/01/12 03:35:32;;;;;;;55.03;28.92;;;;;;;0.01;100.00;102737.81;4985558;28;20388;-64
2024/01/12 03:37:57;;;;;;;57.33;28.70;;;;;;;0.01;100.00;102742.88;4992023;28;20100;-63
2024/01/12 03:40:23;;;;;;;60.03;29.05;;;;;;;0.02;100.00;102737.88;4997296;28;20424;-64
2024/01/12 03:42:48;;;;;;;53.60;27.52;;;;;;;0.04;100.00;102743.97;4988315;28;20664;-64
2024/01/12 03:45:13;;;;;;;51.63;27.40;;;;;;;0.06;100.00;102742.41;4986721;28;20035;-64
2024/01/12 03:47:39;;;;;;;54.80;26.58;;;;;;;0.07;100.00;102749.25;4985859;28;20058;-64
2024/01/12 03:50:04;;;;;;;54.72;27.65;;;;;;;0.07;100.00;102743.28;4986280;28;20030;-63
2024/01/12 03:52:30;;;;;;;51.55;27.35;;;;;;;0.06;100.00;102738.97;4988783;28;20046;-64
2024/01/12 03:54:55;;;;;;;53.58;27.75;;;;;;;0.07;100.00;102741.63;4986649;28;20691;-64
2024/01/12 03:57:21;;;;;;;50.72;25.58;;;;;;;0.09;100.00;102739.19;4989213;28;20042;-64
2024/01/12 03:59:46;;;;;;;56.05;28.35;;;;;;;0.08;100.00;102733.22;4986045;28;20116;-64
2024/01/12 04:02:11;;;;;;;49.67;27.27;;;;;;;0.10;100.00;102741.84;4982437;28;20044;-63
2024/01/12 04:04:37;;;;;;;59.65;29.58;;;;;;;0.12;100.00;102741.91;4984508;28;20034;-64
2024/01/12 04:07:02;;;;;;;59.55;28.27;;;;;;;0.11;100.00;102737.63;4985258;28;20391;-64
2024/01/12 04:09:28;;;;;;;54.88;28.00;;;;;;;0.12;100.00;102731.75;4984698;28;20116;-64
2024/01/12 04:11:53;;;;;;;54.97;29.77;;;;;;;0.13;100.00;102736.06;4983327;28;20038;-63
2024/01/12 04:14:19;;;;;;;56.25;28.98;;;;;;;0.13;100.00;102738.59;4983623;28;20050;-64
2024/01/12 04:16:44;;;;;;;58.35;28.67;;;;;;;0.15;100.00;102739.56;4982622;28;20496;-64
2024/01/12 04:19:09;;;;;;;55.25;28.20;;;;;;;0.16;100.00;102743.88;4988436;28;20058;-63
2024/01/12 04:21:35;;;;;;;47.50;27.17;;;;;;;0.16;100.00;102742.22;4984257;28;20182;-64
2024/01/12 04:24:00;;;;;;;54.50;26.75;;;;;;;0.17;100.00;102740.56;4984108;28;20117;-64
2024/01/12 04:26:26;;;;;;;52.25;28.17;;;;;;;0.17;100.00;102738.88;4986670;28;20041;-65
2024/01/12 04:28:51;;;;;;;51.90;28.67;;;;;;;0.17;100.00;102741.44;4986162;28;20113;-63
2024/01/12 04:31:16;;;;;;;55.88;27.90;;;;;;;0.17;100.00;102740.56;4987429;28;20683;-63
2024/01/12 04:33:42;;;;;;;56.70;27.73;;;;;;;0.19;100.00;102749.19;4984653;28;20429;-64
2024/01/12 04:36:07;;;;;;;60.40;27.25;;;;;;;0.18;100.00;102745.75;4986958;28;20403;-64
2024/01/12 04:38:33;;;;;;;58.10;29.67;;;;;;;0.18;100.00;102748.28;4986856;28;20031;-64
2024/01/12 04:40:58;;;;;;;51.17;28.33;;;;;;;0.18;100.00;102745.75;4988008;28;20030;-64
2024/01/12 04:43:24;;;;;;;56.33;28.77;;;;;;;0.20;100.00;102747.50;4987354;28;20034;-64
2024/01/12 04:45:49;;;;;;;52.58;27.67;;;;;;;0.21;100.00;102739.09;4991633;28;20043;-64
2024/01/12 04:48:14;;;;;;;56.38;28.95;;;;;;;0.22;100.00;102746.84;4986346;28;20423;-64
2024/01/12 04:50:40;;;;;;;51.65;28.38;;;;;;;0.22;100.00;102744.28;4989625;28;20487;-64
2024/01/12 04:53:05;;;;;;;54.38;29.15;;;;;;;0.23;100.00;102750.25;4984993;28;20081;-64
2024/01/12 04:55:31;;;;;;;53.17;26.20;;;;;;;0.23;100.00;102746.06;4985648;28;20047;-64
2024/01/12 04:57:56;;;;;;;54.75;27.20;;;;;;;0.21;100.00;102739.97;4987273;28;20042;-64
2024/01/12 05:00:22;;;;;;;58.47;28.15;;;;;;;0.23;100.00;102735.00;4984402;28;20046;-64
2024/01/12 05:02:47;;;;;;;59.45;29.20;;;;;;;0.24;100.00;102736.75;4986001;28;20046;-64
2024/01/12 05:05:13;;;;;;;57.95;29.95;;;;;;;0.24;100.00;102734.19;4991232;28;20380;-63
2024/01/12 05:07:38;;;;;;;54.72;28.92;;;;;;;0.24;100.00;102727.47;4989321;28;20046;-63
2024/01/12 05:10:05;;;;;;;57.85;28.33;;;;;;;0.25;100.00;102728.34;4988279;28;20073;-63
2024/01/12 05:12:30;;;;;;;62.60;29.13;;;;;;;0.26;100.00;102722.47;4989907;28;20321;-64
2024/01/12 05:14:56;;;;;;;49.17;26.92;;;;;;;0.27;100.00;102724.22;4993466;28;20526;-63
2024/01/12 05:17:23;;;;;;;54.58;27.52;;;;;;;0.27;100.00;102722.56;4986728;28;20030;-64
2024/01/12 05:19:49;;;;;;;55.55;30.60;;;;;;;0.28;100.00;102724.34;4993640;28;20672;-63
2024/01/12 05:22:14;;;;;;;58.60;29.77;;;;;;;0.29;100.00;102735.41;4989175;28;20732;-64
2024/01/12 05:24:40;;;;;;;62.25;30.75;;;;;;;0.29;100.00;102735.41;4986741;28;20073;-64
2024/01/12 05:27:05;;;;;;;72.45;33.92;;;;;;;0.31;100.00;102738.91;4990747;28;20026;-63
2024/01/12 05:29:31;;;;;;;57.35;30.83;;;;;;;0.31;100.00;102737.25;4989230;28;20062;-64
2024/01/12 05:31:56;;;;;;;51.17;29.92;;;;;;;0.30;100.00;102722.75;4992689;28;20026;-64
2024/01/12 05:34:22;;;;;;;60.00;32.15;;;;;;;0.31;100.00;102719.44;4997569;28;20105;-64
2024/01/12 05:36:47;;;;;;;60.33;30.98;;;;;;;0.31;100.00;102710.94;4991502;28;20066;-64
2024/01/12 05:39:14;;;;;;;60.80;31.05;;;;;;;0.31;100.00;102713.47;4987214;28;20031;-64
2024/01/12 05:41:40;;;;;;;60.42;33.42;;;;;;;0.32;100.00;102718.66;4987156;28;20036;-64
2024/01/12 05:44:05;;;;;;;59.67;30.98;;;;;;;0.34;100.00;102713.66;4983948;28;20031;-64
2024/01/12 05:46:31;;;;;;;62.28;32.40;;;;;;;0.34;100.00;102718.75;5003149;28;20042;-64
2024/01/12 05:48:57;;;;;;;65.40;32.55;;;;;;;0.37;100.00;102724.03;4991862;28;20515;-64
2024/01/12 05:51:23;;;;;;;61.03;30.40;;;;;;;0.38;100.00;102723.28;4997584;28;20027;-64
2024/01/12 05:53:48;;;;;;;60.70;30.33;;;;;;;0.40;100.00;102730.22;4988872;28;20034;-65
2024/01/12 05:56:14;;;;;;;69.32;34.72;;;;;;;0.39;100.00;102732.63;4991588;28;20026;-64
2024/01/12 05:58:39;;;;;;;64.93;33.30;;;;;;;0.39;100.00;102730.97;4982532;28;20137;-64
2024/01/12 06:01:05;;;;;;;66.68;34.97;;;;;;;0.39;100.00;102730.97;4984998;28;20031;-64
2024/01/12 06:03:30;;;;;;;68.70;35.10;;;;;;;0.40;100.00;102745.47;4987582;28;20038;-63
2024/01/12 06:05:56;;;;;;;68.03;35.85;;;;;;;0.41;100.00;102746.34;4989018;28;20486;-64
2024/01/12 06:08:21;;;;;;;63.30;33.50;;;;;;;0.40;100.00;102753.09;4992995;28;20076;-65
2024/01/12 06:10:47;;;;;;;69.68;34.45;;;;;;;0.41;100.00;102756.53;4996079;28;20084;-64
2024/01/12 06:13:12;;;;;;;72.97;35.72;;;;;;;0.41;100.00;102752.28;4995051;28;20034;-64
2024/01/12 06:15:38;;;;;;;72.63;35.28;;;;;;;0.42;100.00;102748.09;4990576;28;20057;-64
2024/01/12 06:18:04;;;;;;;71.47;35.47;;;;;;;0.39;100.00;102748.78;4993401;28;20045;-64
2024/01/12 06:20:29;;;;;;;74.85;36.22;;;;;;;0.41;100.00;102751.44;4992800;28;20064;-65
2024/01/12 06:22:56;;;;;;;77.60;38.38;;;;;;;0.39;100.00;102751.34;4984552;28;20101;-64
2024/01/12 06:25:21;;;;;;;81.78;38.55;;;;;;;0.41;100.00;102748.91;4983619;28;20042;-64
2024/01/12 06:27:47;;;;;;;78.03;35.65;;;;;;;0.40;100.00;102745.47;4986588;28;20089;-65
2024/01/12 06:30:13;;;;;;;70.55;35.63;;;;;;;0.41;100.00;102757.38;4993319;28;20092;-65
2024/01/12 06:32:39;;;;;;;75.80;34.67;;;;;;;0.43;100.00;102760.94;4990195;28;20038;-64
2024/01/12 06:35:08;;;;;;;74.05;35.47;;;;;;;0.45;100.00;102758.47;4990872;28;20062;-65
2024/01/12 06:37:33;;;;;;;78.35;39.17;;;;;;;0.46;100.00;102763.66;4991157;28;20045;-65
2024/01/12 06:40:00;;;;;;;78.82;38.97;;;;;;;0.48;100.00;102762.09;4986387;28;20081;-64
2024/01/12 06:42:25;;;;;;;74.43;37.13;;;;;;;0.52;100.00;102771.69;4989705;28;20054;-64
2024/01/12 06:44:51;;;;;;;96.85;40.58;;;;;;;0.55;100.00;102764.25;4989443;28;20133;-64
2024/01/12 06:47:16;;;;;;;83.20;38.47;;;;;;;0.58;100.00;102759.38;4993639;28;20022;-64
2024/01/12 06:49:43;;;;;;;98.55;41.28;;;;;;;0.63;100.00;102764.72;4984784;28;20045;-64
2024/01/12 06:52:09;;;;;;;86.53;34.83;;;;;;;0.65;100.00;102770.78;4986506;28;20034;-64
2024/01/12 06:54:34;;;;;;;80.10;36.00;;;;;;;0.68;100.00;102776.97;4988210;28;20049;-64
2024/01/12 06:56:59;;;;;;;91.88;36.92;;;;;;;0.67;100.00;102777.75;4989641;28;20660;-64
2024/01/12 06:59:25;;;;;;;91.68;38.60;;;;;;;0.67;100.00;102771.78;4989970;28;20104;-64
2024/01/12 07:01:50;;;;;;;77.70;36.45;;;;;;;0.67;100.00;102770.13;4991224;28;20129;-64
2024/01/12 07:04:16;;;;;;;81.28;35.20;;;;;;;0.67;100.00;102770.13;4984702;28;20058;-63
2024/01/12 07:06:41;;;;;;;79.43;35.03;;;;;;;0.67;100.00;102759.94;4987139;28;20495;-64
2024/01/12 07:09:11;;;;;;;68.15;28.73;;;;;;;0.72;100.00;102766.19;4988544;28;20041;-64
2024/01/12 07:11:40;;;;;;;88.22;36.10;;;;;;;0.71;100.00;102764.44;4987756;28;20032;-64
2024/01/12 07:14:05;;;;;;;87.25;35.47;;;;;;;0.72;100.00;102770.41;4983821;28;20030;-64
2024/01/12 07:16:31;;;;;;;90.30;36.58;;;;;;;0.72;100.00;102763.66;4989479;28;20105;-64
2024/01/12 07:18:56;;;;;;;82.22;35.63;;;;;;;0.73;100.00;102760.34;4991544;28;20046;-64
2024/01/12 07:21:21;;;;;;;81.97;35.13;;;;;;;0.75;100.00;102762.97;4988615;28;20039;-64
2024/01/12 07:23:47;;;;;;;84.45;34.35;;;;;;;0.73;100.00;102752.69;4998050;28;20033;-65
2024/01/12 07:26:12;;;;;;;89.72;35.28;;;;;;;0.73;100.00;102741.63;4988363;28;20602;-64
2024/01/12 07:28:38;;;;;;;66.38;28.40;;;;;;;0.73;100.00;102737.44;4977738;28;20043;-64
2024/01/12 07:31:03;;;;;;;66.07;29.23;;;;;;;0.76;100.00;102729.09;4986832;28;20123;-64
2024/01/12 07:33:29;;;;;;;72.63;31.63;;;;;;;0.76;100.00;102734.19;4990712;28;20109;-64
2024/01/12 07:35:54;;;;;;;62.67;25.48;;;;;;;0.77;100.00;102730.00;4989972;28;20038;-64
2024/01/12 07:38:19;;;;;;;56.92;25.65;;;;;;;0.78;100.00;102737.69;4987893;28;20084;-64
2024/01/12 07:40:46;;;;;;;59.45;26.23;;;;;;;0.79;100.00;102743.69;4987594;28;20038;-64
2024/01/12 07:43:12;;;;;;;64.88;27.92;;;;;;;0.80;100.00;102745.41;4988645;28;20110;-64
2024/01/12 07:45:37;;;;;;;66.75;29.95;;;;;;;0.81;100.00;102745.53;4989302;28;20157;-65
2024/01/12 07:48:03;;;;;;;89.25;39.83;;;;;;;0.76;100.00;102736.75;4984169;28;20137;-64
2024/01/12 07:50:28;;;;;;;88.10;38.80;;;;;;;0.78;100.00;102744.44;4989474;28;20096;-64
2024/01/12 07:52:54;;;;;;;100.05;40.05;;;;;;;0.76;100.00;102743.47;4987953;28;20543;-64
2024/01/12 07:55:19;;;;;;;90.53;40.10;;;;;;;0.76;100.00;102738.41;4983556;28;20159;-64
2024/01/12 07:57:45;;;;;;;89.40;38.38;;;;;;;0.76;100.00;102746.03;4989015;28;20562;-64
2024/01/12 08:00:11;;;;;;;96.68;41.42;;;;;;;0.72;100.00;102753.47;4981821;28;20044;-64
2024/01/12 08:02:36;;;;;;;87.45;39.72;;;;;;;0.76;100.00;102751.13;4982881;28;20494;-64
2024/01/12 08:05:02;;;;;;;88.95;38.33;;;;;;;0.77;100.00;102760.53;4986959;28;20061;-64
2024/01/12 08:07:27;;;;;;;90.82;39.63;;;;;;;0.79;100.00;102764.03;4987742;28;20668;-64
2024/01/12 08:09:53;;;;;;;89.10;40.13;;;;;;;0.79;100.00;102761.50;4992888;28;20045;-64
2024/01/12 08:12:19;;;;;;;100.82;42.33;;;;;;;0.80;100.00;102765.78;4987163;28;20030;-64
2024/01/12 08:14:44;;;;;;;87.20;39.40;;;;;;;0.79;100.00;102762.38;4986313;28;20525;-64
2024/01/12 08:17:10;;;;;;;87.25;39.20;;;;;;;0.82;100.00;102767.66;4985733;28;20034;-64
2024/01/12 08:19:35;;;;;;;100.43;41.13;;;;;;;0.83;100.00;102768.50;4985695;28;20053;-65
2024/01/12 08:22:00;;;;;;;97.00;39.97;;;;;;;0.82;100.00;102767.66;4988485;28;20033;-64
2024/01/12 08:24:26;;;;;;;90.68;39.60;;;;;;;0.82;100.00;102765.13;4992075;28;20091;-64
2024/01/12 08:26:51;;;;;;;97.55;42.40;;;;;;;0.82;100.00;102765.13;4986553;28;20499;-64
2024/01/12 08:29:17;;;;;;;94.30;39.72;;;;;;;0.82;100.00;102765.13;4986452;28;20100;-64
2024/01/12 08:31:43;;;;;;;96.68;39.67;;;;;;;0.83;100.00;102761.75;4991845;28;20495;-64
2024/01/12 08:34:08;;;;;;;87.18;39.63;;;;;;;0.85;100.00;102759.34;4991818;28;20046;-65
2024/01/12 08:36:34;;;;;;;92.93;38.35;;;;;;;0.86;100.00;102758.53;4992315;28;20038;-64
2024/01/12 08:38:59;;;;;;;89.50;40.55;;;;;;;0.88;100.00;102749.34;4987932;28;20125;-64
2024/01/12 08:41:25;;;;;;;90.90;40.28;;;;;;;0.88;100.00;102747.69;4988115;28;20502;-63
2024/01/12 08:43:52;;;;;;;83.38;38.15;;;;;;;0.91;100.00;102755.50;4991802;28;20082;-64
2024/01/12 08:46:19;;;;;;;87.32;37.50;;;;;;;0.93;100.00;102747.94;4985194;28;20523;-64
2024/01/12 08:48:44;;;;;;;82.28;36.80;;;;;;;0.95;100.00;102754.91;4990275;28;20062;-64
2024/01/12 08:51:09;;;;;;;85.07;37.10;;;;;;;0.96;100.00;102746.47;4986970;28;20108;-64
2024/01/12 08:53:35;;;;;;;93.93;39.05;;;;;;;0.99;100.00;102761.94;4991010;28;20029;-65
2024/01/12 08:56:00;;;;;;;83.15;36.08;;;;;;;0.98;100.00;102760.19;4991398;28;20455;-64
2024/01/12 08:58:26;;;;;;;91.28;39.42;;;;;;;0.98;100.00;102759.28;4989339;28;20045;-64
2024/01/12 09:00:52;;;;;;;79.85;34.90;;;;;;;1.01;100.00;102756.94;4989926;28;20543;-64
2024/01/12 09:03:18;;;;;;;90.53;37.38;;;;;;;1.02;100.00;102746.84;4988709;28;20073;-64
2024/01/12 09:05:44;;;;;;;86.50;34.75;;;;;;;1.03;100.00;102742.66;4988600;28;20118;-64
2024/01/12 09:08:09;;;;;;;74.00;31.63;;;;;;;1.02;100.00;102751.06;4987204;28;20088;-64
2024/01/12 09:10:34;;;;;;;81.00;34.55;;;;;;;1.02;100.00;102761.25;4990485;28;20038;-65
2024/01/12 09:13:00;;;;;;;76.38;31.02;;;;;;;1.03;100.00;102761.38;4993547;28;20676;-64
2024/01/12 09:15:26;;;;;;;66.30;29.90;;;;;;;1.03;100.00;102758.81;4991400;28;20045;-64
2024/01/12 09:17:52;;;;;;;69.70;29.92;;;;;;;1.01;100.00;102778.19;4990372;28;20058;-64
2024/01/12 09:20:18;;;;;;;69.82;27.23;;;;;;;1.01;100.00;102780.75;4994298;28;20553;-64
2024/01/12 09:22:44;;;;;;;68.28;28.67;;;;;;;1.03;100.00;102779.19;4986889;28;20042;-64
2024/01/12 09:25:09;;;;;;;70.80;30.38;;;;;;;1.04;100.00;102787.69;4994688;28;20642;-64
2024/01/12 09:27:35;;;;;;;70.10;29.45;;;;;;;1.06;100.00;102786.13;4991079;28;20165;-64
2024/01/12 09:30:00;;;;;;;67.75;29.63;;;;;;;1.06;100.00;102794.63;4987503;28;20046;-64
2024/01/12 09:32:25;;;;;;;62.15;27.10;;;;;;;1.05;100.00;102792.88;4990743;28;20030;-64
2024/01/12 09:34:51;;;;;;;62.78;27.52;;;;;;;1.04;100.00;102792.78;4991954;28;20126;-64
2024/01/12 09:37:16;;;;;;;71.32;29.15;;;;;;;1.05;100.00;102797.09;4989992;28;20046;-64
2024/01/12 09:39:42;;;;;;;72.45;28.98;;;;;;;1.07;100.00;102801.50;4988221;28;21173;-64
2024/01/12 09:42:09;;;;;;;75.50;30.75;;;;;;;1.09;100.00;102801.59;4989275;28;20039;-64
2024/01/12 09:44:38;;;;;;;75.55;31.02;;;;;;;1.10;100.00;102793.16;4991588;28;20384;-64
2024/01/12 09:47:04;;;;;;;69.20;31.17;;;;;;;1.10;100.00;102794.03;4992349;28;20029;-64
2024/01/12 09:49:31;;;;;;;72.32;29.05;;;;;;;1.11;100.00;102789.84;4990836;28;20042;-64
2024/01/12 09:52:02;;;;;;;69.72;30.13;;;;;;;1.11;100.00;102790.72;4986704;28;20080;-64
2024/01/12 09:54:28;;;;;;;72.50;30.85;;;;;;;1.11;100.00;102788.16;4987553;28;20050;-64
2024/01/12 09:56:56;;;;;;;75.60;28.80;;;;;;;1.12;100.00;102789.91;4989316;28;20557;-64
2024/01/12 09:59:22;;;;;;;72.30;28.70;;;;;;;1.13;100.00;102795.88;4987619;28;20029;-64
2024/01/12 10:01:49;;;;;;;65.88;28.05;;;;;;;1.13;100.00;102801.88;4990789;28;20228;-64
2024/01/12 10:04:14;;;;;;;64.35;26.40;;;;;;;1.11;100.00;102806.00;4989803;28;20042;-64
2024/01/12 10:06:40;;;;;;;68.65;27.42;;;;;;;1.12;100.00;102795.00;4989159;28;20056;-64
2024/01/12 10:09:06;;;;;;;63.78;25.40;;;;;;;1.12;100.00;102794.16;4990072;28;20065;-64
2024/01/12 10:11:32;;;;;;;64.38;27.67;;;;;;;1.10;100.00;102791.50;4989612;28;20472;-65
2024/01/12 10:13:57;;;;;;;65.25;27.42;;;;;;;1.07;100.00;102795.50;4989498;28;20037;-64
2024/01/12 10:16:28;;;;;;;65.32;28.08;;;;;;;1.10;100.00;102793.16;4990954;28;20519;-64
2024/01/12 10:18:57;;;;;;;63.22;26.83;;;;;;;1.10;100.00;102798.25;4986776;28;20145;-64
2024/01/12 10:21:24;;;;;;;64.22;27.90;;;;;;;1.08;100.00;102798.16;4987875;28;20126;-64
2024/01/12 10:23:49;;;;;;;61.00;25.45;;;;;;;1.08;100.00;102795.63;4990693;28;20057;-64
2024/01/12 10:26:18;;;;;;;66.72;29.42;;;;;;;1.08;100.00;102802.38;4992123;28;20469;-64
2024/01/12 10:28:44;;;;;;;61.10;24.90;;;;;;;1.09;100.00;102796.50;4988091;28;20125;-64
2024/01/12 10:31:10;;;;;;;61.95;25.33;;;;;;;1.10;100.00;102801.69;4991118;28;20034;-64
2024/01/12 10:33:36;;;;;;;60.92;25.67;;;;;;;1.11;100.00;102800.91;4994132;28;20037;-64
2024/01/12 10:36:06;;;;;;;56.70;24.98;;;;;;;1.10;100.00;102798.25;4996502;28;20038;-64
2024/01/12 10:38:36;;;;;;;62.78;24.75;;;;;;;1.07;100.00;102800.59;4992155;28;20036;-65
2024/01/12 10:41:05;;;;;;;67.47;28.05;;;;;;;1.11;100.00;102793.25;4989193;28;20038;-64
2024/01/12 10:43:36;;;;;;;65.82;27.23;;;;;;;1.14;100.00;102790.03;4991688;28;20126;-64
2024/01/12 10:46:10;;;;;;;60.40;27.67;;;;;;;1.17;100.00;102780.03;4994011;28;20034;-64
2024/01/12 10:48:44;;;;;;;60.15;26.17;;;;;;;1.16;100.00;102784.22;4992883;28;20131;-64
2024/01/12 10:51:13;;;;;;;63.10;25.10;;;;;;;1.14;100.00;102777.28;4986627;28;20042;-65
2024/01/12 10:53:48;;;;;;;63.22;26.60;;;;;;;1.17;100.00;102769.84;4986323;28;20035;-64
2024/01/12 10:56:14;;;;;;;68.50;27.55;;;;;;;1.19;100.00;102766.59;4986528;28;20116;-64
2024/01/12 10:58:41;;;;;;;69.47;28.10;;;;;;;1.22;100.00;102759.13;4986323;28;20069;-64
2024/01/12 11:01:07;;;;;;;58.97;26.75;;;;;;;1.22;100.00;102751.50;4986595;28;20050;-64